Gualeguaychu, Gualeguaychú Airport (SAAG)

NameGualeguaychú Airport
CityGualeguaychu
CountryArgentina
ICAOSAAG
IATAGHU
Altitude23 m
CoordinatesGoogle Map
Live Air TrafficLiveATC.net
METARSAAG 211810Z 09005KT 8000 RA 21/13 Q1014
2018-10-21 18:10:00 Wind: East (90°) 2.57 m/s - Visibility: 8000 m - Weather: Rain - Temperature: 21 °C - Dew point: 13 °C - Humidity: 60.4% - Pressure: 1014 hPa
Statistics

The table below shows the detailed information of all flights to/from Gualeguaychu, Gualeguaychú Airport (SAAG).